createdAt,value
2019-03-27T00:01:11.063Z,-0.80
2019-03-27T00:03:42.058Z,-0.80
2019-03-27T00:06:13.113Z,-0.60
2019-03-27T00:08:44.136Z,-0.80
2019-03-27T00:11:16.376Z,-0.80
2019-03-27T00:13:47.495Z,-0.70
2019-03-27T00:16:18.458Z,-0.60
2019-03-27T00:18:49.491Z,-0.50
2019-03-27T00:21:20.441Z,-0.80
2019-03-27T00:23:51.415Z,-0.70
2019-03-27T00:26:22.426Z,-0.70
2019-03-27T00:28:53.380Z,-0.70
2019-03-27T00:31:24.326Z,-0.80
2019-03-27T00:33:55.302Z,-0.70
2019-03-27T00:36:26.240Z,-0.80
2019-03-27T00:38:57.212Z,-0.90
2019-03-27T00:41:28.282Z,-1.00
2019-03-27T00:43:59.263Z,-1.20
2019-03-27T00:46:30.206Z,-1.00
2019-03-27T00:49:01.166Z,-0.90
2019-03-27T00:51:32.146Z,-1.00
2019-03-27T00:54:03.103Z,-1.00
2019-03-27T00:56:34.061Z,-1.00
2019-03-27T00:59:05.040Z,-1.10
2019-03-27T01:01:36.030Z,-1.10
2019-03-27T01:04:06.999Z,-1.20
2019-03-27T01:06:37.943Z,-1.30
2019-03-27T01:09:09.026Z,-1.40
2019-03-27T01:11:40.111Z,-1.20
2019-03-27T01:14:11.216Z,-1.50
2019-03-27T01:16:42.246Z,-1.60
2019-03-27T01:19:13.182Z,-1.70
2019-03-27T01:21:44.138Z,-1.60
2019-03-27T01:24:15.178Z,-1.50
2019-03-27T01:26:46.151Z,-1.60
2019-03-27T01:29:17.102Z,-1.80
2019-03-27T01:31:48.080Z,-1.70
2019-03-27T01:34:19.039Z,-1.40
2019-03-27T01:36:50.013Z,-1.60
2019-03-27T01:39:20.946Z,-1.70
2019-03-27T01:41:51.934Z,-1.80
2019-03-27T01:44:22.914Z,-1.60
2019-03-27T01:46:53.883Z,-1.70
2019-03-27T01:49:24.965Z,-1.60
2019-03-27T01:51:55.911Z,-1.70
2019-03-27T01:54:26.858Z,-1.50
2019-03-27T01:56:57.821Z,-1.60
2019-03-27T01:59:28.808Z,-1.80
2019-03-27T02:01:59.956Z,-1.50
2019-03-27T02:04:30.913Z,-1.80
2019-03-27T02:07:01.859Z,-1.60
2019-03-27T02:09:32.831Z,-1.70
2019-03-27T02:12:03.780Z,-1.70
2019-03-27T02:14:34.746Z,-1.70
2019-03-27T02:17:05.787Z,-1.70
2019-03-27T02:19:36.746Z,-1.90
2019-03-27T02:22:11.095Z,-1.70
2019-03-27T02:24:42.063Z,-1.80
2019-03-27T02:27:13.281Z,-1.50
2019-03-27T02:29:44.271Z,-1.80
2019-03-27T02:32:15.813Z,-1.60
2019-03-27T02:34:48.371Z,-1.70
2019-03-27T02:37:19.354Z,-1.70
2019-03-27T02:39:50.325Z,-1.80
2019-03-27T02:42:21.300Z,-1.50
2019-03-27T02:44:52.235Z,-1.70
2019-03-27T02:47:23.201Z,-1.60
2019-03-27T02:49:54.138Z,-1.70
2019-03-27T02:52:25.080Z,-1.50
2019-03-27T02:54:56.023Z,-1.70
2019-03-27T02:57:27.003Z,-1.60
2019-03-27T02:59:57.984Z,-1.60
2019-03-27T03:02:28.949Z,-1.90
2019-03-27T03:04:59.913Z,-1.70
2019-03-27T03:07:30.840Z,-1.90
2019-03-27T03:10:01.790Z,-2.00
2019-03-27T03:12:32.762Z,-1.90
2019-03-27T03:15:03.838Z,-1.90
2019-03-27T03:17:34.819Z,-1.80
2019-03-27T03:20:06.474Z,-1.80
2019-03-27T03:22:37.431Z,-1.60
2019-03-27T03:25:08.626Z,-1.90
2019-03-27T03:27:39.547Z,-1.80
2019-03-27T03:30:11.521Z,-1.90
2019-03-27T03:32:42.459Z,-2.20
2019-03-27T03:35:13.522Z,-2.20
2019-03-27T03:37:44.683Z,-1.90
2019-03-27T03:40:17.412Z,-2.00
2019-03-27T03:42:48.390Z,-2.20
2019-03-27T03:45:19.555Z,-2.20
2019-03-27T03:47:50.514Z,-2.30
2019-03-27T03:50:40.478Z,-2.00
2019-03-27T03:53:13.785Z,-2.30
2019-03-27T03:55:44.808Z,-2.30
2019-03-27T03:58:17.299Z,-2.30
2019-03-27T04:00:48.447Z,-2.10
2019-03-27T04:03:20.027Z,-2.20
2019-03-27T04:05:50.967Z,-2.20
2019-03-27T04:08:22.033Z,-2.40
2019-03-27T04:10:52.989Z,-2.50
2019-03-27T04:13:23.959Z,-2.40
2019-03-27T04:15:54.936Z,-2.30
2019-03-27T04:18:25.877Z,-2.50
2019-03-27T04:20:56.863Z,-2.50
2019-03-27T04:23:27.824Z,-2.50
2019-03-27T04:26:09.694Z,-2.20
2019-03-27T04:28:31.357Z,-2.30
2019-03-27T04:31:02.275Z,-2.60
2019-03-27T04:33:33.264Z,-2.40
2019-03-27T04:36:04.223Z,-2.50
2019-03-27T04:38:35.194Z,-2.30
2019-03-27T04:41:06.134Z,-2.30
2019-03-27T04:43:37.102Z,-2.10
2019-03-27T04:46:08.071Z,-2.30
2019-03-27T04:48:39.060Z,-2.10
2019-03-27T04:51:10.039Z,-2.30
2019-03-27T04:53:40.978Z,-2.20
2019-03-27T04:56:11.958Z,-1.90
2019-03-27T04:58:42.889Z,-1.80
2019-03-27T05:01:13.907Z,-1.70
2019-03-27T05:03:44.836Z,-1.50
2019-03-27T05:06:15.809Z,-1.60
2019-03-27T05:08:46.843Z,-1.60
2019-03-27T05:11:17.822Z,-1.30
2019-03-27T05:13:48.769Z,-1.40
2019-03-27T05:16:19.747Z,-1.10
2019-03-27T05:18:50.712Z,-1.10
2019-03-27T05:21:21.662Z,-1.00
2019-03-27T05:23:52.610Z,-1.00
2019-03-27T05:26:23.595Z,-1.00
2019-03-27T05:28:54.557Z,-0.70
2019-03-27T05:31:25.511Z,-0.80
2019-03-27T05:33:56.463Z,-0.50
2019-03-27T05:36:27.457Z,-0.40
2019-03-27T05:38:58.399Z,-0.30
2019-03-27T05:41:29.413Z,-0.10
2019-03-27T05:44:00.361Z,-0.40
2019-03-27T05:46:31.343Z,-0.40
2019-03-27T05:49:02.298Z,-0.40
2019-03-27T05:51:33.274Z,-0.20
2019-03-27T05:54:04.293Z,-0.30
2019-03-27T05:56:35.244Z,-0.40
2019-03-27T05:59:06.194Z,-0.30
2019-03-27T06:01:37.264Z,0.20
2019-03-27T06:04:08.198Z,0.10
2019-03-27T06:06:39.217Z,0.20
2019-03-27T06:09:10.183Z,0.40
2019-03-27T06:11:41.141Z,0.40
2019-03-27T06:14:12.098Z,0.60
2019-03-27T06:16:43.086Z,0.90
2019-03-27T06:19:14.101Z,0.80
2019-03-27T06:21:45.066Z,0.90
2019-03-27T06:24:16.002Z,1.10
2019-03-27T06:26:46.979Z,1.20
2019-03-27T06:29:18.062Z,1.30
2019-03-27T06:31:49.073Z,1.30
2019-03-27T06:34:20.106Z,1.20
2019-03-27T06:36:51.076Z,1.30
2019-03-27T06:39:22.033Z,1.20
2019-03-27T06:41:53.006Z,1.40
2019-03-27T06:44:23.967Z,1.50
2019-03-27T06:46:54.934Z,1.20
2019-03-27T06:49:25.886Z,1.30
2019-03-27T06:51:56.878Z,1.10
2019-03-27T06:54:27.815Z,1.20
2019-03-27T06:57:01.105Z,1.20
2019-03-27T06:59:31.480Z,1.60
2019-03-27T07:02:02.521Z,1.60
2019-03-27T07:04:33.469Z,1.50
2019-03-27T07:07:04.435Z,1.70
2019-03-27T07:09:35.398Z,1.70
2019-03-27T07:12:20.178Z,1.70
2019-03-27T07:14:38.969Z,1.70
2019-03-27T07:17:10.017Z,1.80
2019-03-27T07:19:40.971Z,2.00
2019-03-27T07:22:11.943Z,2.20
2019-03-27T07:24:42.917Z,2.20
2019-03-27T07:27:13.951Z,2.60
2019-03-27T07:29:44.932Z,2.30
2019-03-27T07:32:15.962Z,2.40
2019-03-27T07:34:46.943Z,2.70
2019-03-27T07:37:17.894Z,2.90
2019-03-27T07:39:48.850Z,2.90
2019-03-27T07:42:19.807Z,2.50
2019-03-27T07:44:50.881Z,2.90
2019-03-27T07:47:21.856Z,2.80
2019-03-27T07:49:52.835Z,3.20
2019-03-27T07:52:23.906Z,3.20
2019-03-27T07:54:54.850Z,3.40
2019-03-27T07:57:25.830Z,3.20
2019-03-27T07:59:56.790Z,3.40
2019-03-27T08:02:27.795Z,3.40
2019-03-27T08:04:58.711Z,3.50
2019-03-27T08:07:29.699Z,3.60
2019-03-27T08:10:01.569Z,3.70
2019-03-27T08:12:32.565Z,3.80
2019-03-27T08:15:03.534Z,3.70
2019-03-27T08:17:34.509Z,3.90
2019-03-27T08:20:05.939Z,3.90
2019-03-27T08:22:36.903Z,4.00
2019-03-27T08:25:08.756Z,4.00
2019-03-27T08:27:39.739Z,4.40
2019-03-27T08:30:13.654Z,4.60
2019-03-27T08:32:44.616Z,4.80
2019-03-27T08:35:15.914Z,5.10
2019-03-27T08:37:46.888Z,5.00
2019-03-27T08:40:18.155Z,5.20
2019-03-27T08:42:49.127Z,5.20
2019-03-27T08:45:20.097Z,5.40
2019-03-27T08:47:51.120Z,5.00
2019-03-27T08:50:22.277Z,5.10
2019-03-27T08:52:53.397Z,5.40
2019-03-27T08:55:24.335Z,5.80
2019-03-27T08:57:55.287Z,5.90
2019-03-27T09:00:48.679Z,6.30
2019-03-27T09:03:20.166Z,6.20
2019-03-27T09:05:51.278Z,6.20
2019-03-27T09:08:22.350Z,6.20
2019-03-27T09:10:53.519Z,6.50
2019-03-27T09:13:24.547Z,6.70
2019-03-27T09:15:55.539Z,6.90
2019-03-27T09:18:26.499Z,7.30
2019-03-27T09:20:57.582Z,7.00
2019-03-27T09:23:28.623Z,6.70
2019-03-27T09:25:59.598Z,6.60
2019-03-27T09:28:30.603Z,6.90
2019-03-27T09:31:01.827Z,6.80
2019-03-27T09:33:32.863Z,6.50
2019-03-27T09:36:04.257Z,6.60
2019-03-27T09:38:35.339Z,6.70
2019-03-27T09:41:25.286Z,6.80
2019-03-27T09:43:59.108Z,6.90
2019-03-27T09:46:30.085Z,6.90
2019-03-27T09:49:01.035Z,6.80
2019-03-27T09:51:32.022Z,6.60
2019-03-27T09:54:03.135Z,7.10
2019-03-27T09:56:34.337Z,7.40
2019-03-27T09:59:06.101Z,7.20
2019-03-27T10:01:37.694Z,7.70
2019-03-27T10:04:08.710Z,7.90
2019-03-27T10:06:39.691Z,8.30
2019-03-27T10:09:10.825Z,8.10
2019-03-27T10:11:41.850Z,7.70
2019-03-27T10:14:12.842Z,8.20
2019-03-27T10:16:43.814Z,8.10
2019-03-27T10:19:14.915Z,8.00
2019-03-27T10:21:45.845Z,8.10
2019-03-27T10:24:16.802Z,8.30
2019-03-27T10:26:47.795Z,8.10
2019-03-27T10:29:18.931Z,8.30
2019-03-27T10:31:49.899Z,8.60
2019-03-27T10:34:20.894Z,8.80
2019-03-27T10:36:51.862Z,8.60
2019-03-27T10:39:22.873Z,8.90
2019-03-27T10:41:53.827Z,8.70
2019-03-27T10:44:24.873Z,8.80
2019-03-27T10:46:55.889Z,8.80
2019-03-27T10:49:26.881Z,8.90
2019-03-27T10:51:57.936Z,9.10
2019-03-27T10:54:29.025Z,9.20
2019-03-27T10:57:02.468Z,9.50
2019-03-27T10:59:33.499Z,9.40
2019-03-27T11:02:05.162Z,9.40
2019-03-27T11:04:36.531Z,9.30
2019-03-27T11:07:07.586Z,9.60
2019-03-27T11:09:39.568Z,9.50
2019-03-27T11:12:10.555Z,9.30
2019-03-27T11:14:41.523Z,9.40
2019-03-27T11:17:12.622Z,9.70
2019-03-27T11:19:43.607Z,9.70
2019-03-27T11:22:14.581Z,9.90
2019-03-27T11:24:45.551Z,9.50
2019-03-27T11:27:16.516Z,9.70
2019-03-27T11:29:47.967Z,9.90
2019-03-27T11:32:18.947Z,10.20
2019-03-27T11:34:50.956Z,10.30
2019-03-27T11:37:22.421Z,10.20
2019-03-27T11:39:54.234Z,10.30
2019-03-27T11:42:25.246Z,10.40
2019-03-27T11:44:56.248Z,10.80
2019-03-27T11:47:27.825Z,10.50
2019-03-27T11:49:58.924Z,10.60
2019-03-27T11:52:30.025Z,10.20
2019-03-27T11:55:01.110Z,10.20
2019-03-27T11:57:32.088Z,10.40
2019-03-27T12:00:03.152Z,10.70
2019-03-27T12:02:34.131Z,10.50
2019-03-27T12:05:06.646Z,10.90
2019-03-27T12:07:37.631Z,10.50
2019-03-27T12:10:09.430Z,10.90
2019-03-27T12:12:40.621Z,10.80
2019-03-27T12:15:11.902Z,10.80
2019-03-27T12:17:42.861Z,10.40
2019-03-27T12:20:14.015Z,10.10
2019-03-27T12:22:57.167Z,10.10
2019-03-27T12:25:17.722Z,10.00
2019-03-27T12:27:48.695Z,10.50
2019-03-27T12:30:19.767Z,10.50
2019-03-27T12:32:50.731Z,10.60
2019-03-27T12:35:21.716Z,10.40
2019-03-27T12:37:52.725Z,10.40
2019-03-27T12:40:23.718Z,10.40
2019-03-27T12:42:54.754Z,10.30
2019-03-27T12:45:25.731Z,10.70
2019-03-27T12:47:56.736Z,10.60
2019-03-27T12:50:28.129Z,10.50
2019-03-27T12:52:59.786Z,10.40
2019-03-27T12:55:30.948Z,10.60
2019-03-27T12:58:02.304Z,10.60
2019-03-27T13:00:33.425Z,10.30
2019-03-27T13:03:05.053Z,10.30
2019-03-27T13:05:36.070Z,10.40
2019-03-27T13:08:07.407Z,10.10
2019-03-27T13:10:38.805Z,10.10
2019-03-27T13:13:10.110Z,10.20
2019-03-27T13:15:41.315Z,10.10
2019-03-27T13:18:12.887Z,10.40
2019-03-27T13:20:43.859Z,10.60
2019-03-27T13:23:15.343Z,10.20
2019-03-27T13:25:46.311Z,10.00
2019-03-27T13:28:17.474Z,10.10
2019-03-27T13:30:48.450Z,9.90
2019-03-27T13:33:19.860Z,10.30
2019-03-27T13:35:50.878Z,10.60
2019-03-27T13:38:21.935Z,11.00
2019-03-27T13:40:54.622Z,10.90
2019-03-27T13:43:25.649Z,10.40
2019-03-27T13:45:56.594Z,10.20
2019-03-27T13:48:27.832Z,10.30
2019-03-27T13:50:58.879Z,10.00
2019-03-27T13:53:29.846Z,10.00
2019-03-27T13:56:00.918Z,10.00
2019-03-27T13:58:31.862Z,9.70
2019-03-27T14:01:02.979Z,9.70
2019-03-27T14:03:34.073Z,9.60
2019-03-27T14:06:04.997Z,9.40
2019-03-27T14:08:35.958Z,9.20
2019-03-27T14:11:07.664Z,9.10
2019-03-27T14:13:38.608Z,9.10
2019-03-27T14:16:09.701Z,9.00
2019-03-27T14:18:40.759Z,9.10
2019-03-27T14:21:12.247Z,9.10
2019-03-27T14:23:43.226Z,9.00
2019-03-27T14:26:14.274Z,9.10
2019-03-27T14:28:45.221Z,9.00
2019-03-27T14:31:16.242Z,8.70
2019-03-27T14:33:47.260Z,8.50
2019-03-27T14:36:18.355Z,8.30
2019-03-27T14:38:49.350Z,8.20
2019-03-27T14:41:20.470Z,8.20
2019-03-27T14:43:51.539Z,7.80
2019-03-27T14:46:22.493Z,8.10
2019-03-27T14:48:53.470Z,7.90
2019-03-27T14:51:24.429Z,8.00
2019-03-27T14:53:55.566Z,8.00
2019-03-27T14:56:26.738Z,7.90
2019-03-27T14:58:57.898Z,7.90
2019-03-27T15:01:29.050Z,8.00
2019-03-27T15:04:00.139Z,8.00
2019-03-27T15:06:31.112Z,8.40
2019-03-27T15:09:02.097Z,8.30
2019-03-27T15:11:33.067Z,8.30
2019-03-27T15:14:04.126Z,8.40
2019-03-27T15:16:35.230Z,8.50
2019-03-27T15:19:06.467Z,8.50
2019-03-27T15:21:37.415Z,8.50
2019-03-27T15:24:08.388Z,8.40
2019-03-27T15:26:39.572Z,8.40
2019-03-27T15:29:10.512Z,8.30
2019-03-27T15:31:41.511Z,8.30
2019-03-27T15:34:12.466Z,8.30
2019-03-27T15:36:43.451Z,8.40
2019-03-27T15:39:14.518Z,8.10
2019-03-27T15:41:45.486Z,8.10
2019-03-27T15:44:16.461Z,8.00
2019-03-27T15:46:49.537Z,8.00
2019-03-27T15:49:20.617Z,7.80
2019-03-27T15:51:51.626Z,7.90
2019-03-27T15:54:22.614Z,7.80
2019-03-27T15:56:53.566Z,7.80
2019-03-27T15:59:24.559Z,7.80
2019-03-27T16:01:57.891Z,8.10
2019-03-27T16:04:28.295Z,7.80
2019-03-27T16:06:59.415Z,7.70
2019-03-27T16:09:30.353Z,7.70
2019-03-27T16:12:02.179Z,7.60
2019-03-27T16:14:34.246Z,7.60
2019-03-27T16:17:13.353Z,7.50
2019-03-27T16:19:38.020Z,7.40
2019-03-27T16:22:09.166Z,7.60
2019-03-27T16:24:40.771Z,7.40
2019-03-27T16:27:11.999Z,7.20
2019-03-27T16:29:43.342Z,7.30
2019-03-27T16:32:14.282Z,7.10
2019-03-27T16:34:45.462Z,7.20
2019-03-27T16:37:16.787Z,7.00
2019-03-27T16:39:47.862Z,7.20
2019-03-27T16:42:20.340Z,6.90
2019-03-27T16:44:51.443Z,6.90
2019-03-27T16:47:22.827Z,6.90
2019-03-27T16:49:54.036Z,6.80
2019-03-27T16:52:25.000Z,7.00
2019-03-27T16:54:56.039Z,7.10
2019-03-27T16:57:27.014Z,6.60
2019-03-27T16:59:58.159Z,6.70
2019-03-27T17:02:29.514Z,6.60
2019-03-27T17:05:00.442Z,6.60
2019-03-27T17:07:31.569Z,6.50
2019-03-27T17:10:03.430Z,6.60
2019-03-27T17:12:34.487Z,6.60
2019-03-27T17:15:06.455Z,6.50
2019-03-27T17:17:37.404Z,6.50
2019-03-27T17:20:08.931Z,6.60
2019-03-27T17:22:40.395Z,6.40
2019-03-27T17:25:12.560Z,6.40
2019-03-27T17:27:55.913Z,6.40
2019-03-27T17:30:27.314Z,6.20
2019-03-27T17:32:58.279Z,6.30
2019-03-27T17:35:29.677Z,6.10
2019-03-27T17:38:01.242Z,6.00
2019-03-27T17:40:32.353Z,5.90
2019-03-27T17:43:03.318Z,6.00
2019-03-27T17:45:34.891Z,6.00
2019-03-27T17:48:06.278Z,6.10
2019-03-27T17:50:37.274Z,6.20
2019-03-27T17:53:08.208Z,6.20
2019-03-27T17:55:39.226Z,6.40
2019-03-27T17:58:10.234Z,6.30
2019-03-27T18:00:47.211Z,6.10
2019-03-27T18:03:18.351Z,6.30
2019-03-27T18:05:49.451Z,6.00
2019-03-27T18:08:20.581Z,6.00
2019-03-27T18:10:51.543Z,6.10
2019-03-27T18:13:22.578Z,5.90
2019-03-27T18:15:53.537Z,6.00
2019-03-27T18:18:24.597Z,6.00
2019-03-27T18:20:55.578Z,6.00
2019-03-27T18:23:26.568Z,6.10
2019-03-27T18:25:57.511Z,6.00
2019-03-27T18:28:28.487Z,5.80
2019-03-27T18:30:59.434Z,5.70
2019-03-27T18:33:33.733Z,5.80
2019-03-27T18:36:03.185Z,5.90
2019-03-27T18:38:34.155Z,5.80
2019-03-27T18:41:05.296Z,6.00
2019-03-27T18:43:36.229Z,6.10
2019-03-27T18:46:07.271Z,6.00
2019-03-27T18:48:38.238Z,5.90
2019-03-27T18:51:09.294Z,5.90
2019-03-27T18:53:40.302Z,6.00
2019-03-27T18:56:11.271Z,5.90
2019-03-27T18:58:42.308Z,6.10
2019-03-27T19:01:13.290Z,6.10
2019-03-27T19:03:44.277Z,6.20
2019-03-27T19:06:15.334Z,6.00
2019-03-27T19:08:46.314Z,6.00
2019-03-27T19:11:17.311Z,6.10
2019-03-27T19:13:48.296Z,6.20
2019-03-27T19:16:19.255Z,6.20
2019-03-27T19:18:50.298Z,6.20
2019-03-27T19:21:21.289Z,6.30
2019-03-27T19:23:52.326Z,6.30
2019-03-27T19:26:23.341Z,6.40
2019-03-27T19:28:54.277Z,6.10
2019-03-27T19:31:25.394Z,6.30
2019-03-27T19:33:56.362Z,6.10
2019-03-27T19:36:27.345Z,6.30
2019-03-27T19:38:58.316Z,6.00
2019-03-27T19:41:29.276Z,6.00
2019-03-27T19:44:00.391Z,6.10
2019-03-27T19:46:32.190Z,5.90
2019-03-27T19:49:03.182Z,5.90
2019-03-27T19:51:34.129Z,5.80
2019-03-27T19:54:05.117Z,5.80
2019-03-27T19:56:36.180Z,5.70
2019-03-27T19:59:07.122Z,5.90
2019-03-27T20:01:38.390Z,5.80
2019-03-27T20:04:09.326Z,5.80
2019-03-27T20:06:40.815Z,5.90
2019-03-27T20:09:11.946Z,6.10
2019-03-27T20:11:46.800Z,5.80
2019-03-27T20:14:17.734Z,6.00
2019-03-27T20:16:48.882Z,5.80
2019-03-27T20:19:19.900Z,5.90
2019-03-27T20:21:51.027Z,5.90
2019-03-27T20:24:22.166Z,5.80
2019-03-27T20:26:53.248Z,5.80
2019-03-27T20:29:24.336Z,5.80
2019-03-27T20:31:55.266Z,5.70
2019-03-27T20:34:26.225Z,5.60
2019-03-27T20:36:57.198Z,5.80
2019-03-27T20:39:28.583Z,5.60
2019-03-27T20:41:59.682Z,5.80
2019-03-27T20:44:30.629Z,5.60
2019-03-27T20:47:01.656Z,5.70
2019-03-27T20:49:32.668Z,6.00
2019-03-27T20:52:03.634Z,5.70
2019-03-27T20:54:34.631Z,5.70
2019-03-27T20:57:06.335Z,5.80
2019-03-27T20:59:38.024Z,5.50
2019-03-27T21:02:09.022Z,5.60
2019-03-27T21:04:40.090Z,5.50
2019-03-27T21:07:11.069Z,5.60
2019-03-27T21:09:42.051Z,5.60
2019-03-27T21:12:12.991Z,5.60
2019-03-27T21:14:44.256Z,5.80
2019-03-27T21:17:15.210Z,5.60
2019-03-27T21:19:46.459Z,5.60
2019-03-27T21:22:17.409Z,5.60
2019-03-27T21:24:48.445Z,5.60
2019-03-27T21:27:19.335Z,5.60
2019-03-27T21:29:50.299Z,5.80
2019-03-27T21:32:21.258Z,5.70
2019-03-27T21:34:52.252Z,5.60
2019-03-27T21:37:23.217Z,5.50
2019-03-27T21:39:54.589Z,5.60
2019-03-27T21:42:25.606Z,5.70
2019-03-27T21:44:56.579Z,5.50
2019-03-27T21:47:27.562Z,5.60
2019-03-27T21:49:58.586Z,5.60
2019-03-27T21:52:29.586Z,5.70
2019-03-27T21:55:00.591Z,5.60
2019-03-27T21:57:31.526Z,5.60
2019-03-27T22:00:02.558Z,5.60
2019-03-27T22:02:33.494Z,5.60
2019-03-27T22:05:04.906Z,5.50
2019-03-27T22:07:35.997Z,5.50
2019-03-27T22:10:08.065Z,5.60
2019-03-27T22:12:39.042Z,5.50
2019-03-27T22:15:10.259Z,5.60
2019-03-27T22:17:41.219Z,5.50
2019-03-27T22:20:12.485Z,5.60
2019-03-27T22:22:43.510Z,5.40
2019-03-27T22:25:14.578Z,5.30
2019-03-27T22:27:45.680Z,5.50
2019-03-27T22:30:16.772Z,5.60
2019-03-27T22:32:47.700Z,5.40
2019-03-27T22:35:18.682Z,5.50
2019-03-27T22:37:49.655Z,5.30
2019-03-27T22:40:20.585Z,5.50
2019-03-27T22:42:51.566Z,5.50
2019-03-27T22:45:22.554Z,5.60
2019-03-27T22:47:53.532Z,5.50
2019-03-27T22:50:24.606Z,5.60
2019-03-27T22:52:55.644Z,5.40
2019-03-27T22:55:26.698Z,5.50
2019-03-27T22:57:57.759Z,5.60
2019-03-27T23:00:53.954Z,5.70
2019-03-27T23:03:24.987Z,5.40
2019-03-27T23:05:55.930Z,5.40
2019-03-27T23:08:26.908Z,5.40
2019-03-27T23:10:58.082Z,5.60
2019-03-27T23:13:29.088Z,5.60
2019-03-27T23:16:00.067Z,5.70
2019-03-27T23:18:31.081Z,5.60
2019-03-27T23:21:02.022Z,5.50
2019-03-27T23:23:33.094Z,5.50
2019-03-27T23:26:04.052Z,5.70
2019-03-27T23:28:35.024Z,5.40
2019-03-27T23:31:06.159Z,5.50
2019-03-27T23:33:37.131Z,5.30
2019-03-27T23:36:08.074Z,5.30
2019-03-27T23:38:39.046Z,5.70
2019-03-27T23:41:10.025Z,5.70
2019-03-27T23:43:40.993Z,5.80
2019-03-27T23:46:12.031Z,5.70
2019-03-27T23:48:43.097Z,5.50
2019-03-27T23:51:14.094Z,5.50
2019-03-27T23:53:45.093Z,5.50
2019-03-27T23:56:17.161Z,5.60
2019-03-27T23:58:48.418Z,5.70
